Time;durP1;ratioP1;P1;durP2;ratioP2;P2;SDS_P1;SDS_P2;PMS_P1;PMS_P2;Temp;Humidity;BMP_temperature;BMP_pressure;BME280_temperature;BME280_humidity;BME280_pressure;Samples;Min_cycle;Max_cycle;Signal;HPM_P1;HPM_P2
2023/07/31 00:02:21;;;;;;;6.60;3.80;;;19.40;79.30;;;;;;4985927;28;20039;-73
2023/07/31 00:04:48;;;;;;;5.97;3.70;;;19.40;78.90;;;;;;4984193;28;20061;-73
2023/07/31 00:07:15;;;;;;;6.32;3.60;;;19.40;78.60;;;;;;4984726;28;20034;-73
2023/07/31 00:09:40;;;;;;;4.55;3.53;;;19.40;79.80;;;;;;4985565;28;20030;-73
2023/07/31 00:12:07;;;;;;;9.57;4.20;;;19.40;80.50;;;;;;4983878;28;20378;-73
2023/07/31 00:14:33;;;;;;;6.28;3.75;;;19.30;79.80;;;;;;4984055;28;20035;-73
2023/07/31 00:16:59;;;;;;;5.50;3.38;;;19.30;81.30;;;;;;4983747;28;20048;-74
2023/07/31 00:19:25;;;;;;;7.07;3.85;;;19.30;80.50;;;;;;4985245;28;20038;-74
2023/07/31 00:21:51;;;;;;;6.85;3.85;;;19.20;80.30;;;;;;4984250;28;20421;-75
2023/07/31 00:24:17;;;;;;;8.15;4.07;;;19.20;81.10;;;;;;4984838;28;20038;-74
2023/07/31 00:26:43;;;;;;;7.47;3.72;;;19.10;81.30;;;;;;4984008;28;20081;-74
2023/07/31 00:29:09;;;;;;;7.65;4.00;;;19.10;81.10;;;;;;4983398;28;20069;-74
2023/07/31 00:31:36;;;;;;;6.43;4.22;;;19.00;81.50;;;;;;4980832;28;20034;-74
2023/07/31 00:34:02;;;;;;;7.03;3.90;;;19.00;81.20;;;;;;4984880;28;20798;-75
2023/07/31 00:36:28;;;;;;;4.55;3.40;;;19.10;80.80;;;;;;4983613;28;20045;-75
2023/07/31 00:38:54;;;;;;;4.20;3.25;;;19.10;80.40;;;;;;4981090;28;20058;-74
2023/07/31 00:41:20;;;;;;;7.30;3.13;;;19.00;80.70;;;;;;4996344;28;20450;-74
2023/07/31 00:43:46;;;;;;;6.30;3.72;;;19.10;80.80;;;;;;4983283;28;20038;-74
2023/07/31 00:46:12;;;;;;;5.68;3.97;;;19.10;80.90;;;;;;4985400;28;20444;-74
2023/07/31 00:48:39;;;;;;;6.78;3.58;;;19.10;81.40;;;;;;4983476;28;20096;-76
2023/07/31 00:51:06;;;;;;;5.68;3.35;;;19.00;81.10;;;;;;4982610;28;20101;-73
2023/07/31 00:53:34;;;;;;;4.38;3.72;;;19.10;80.80;;;;;;4999133;28;20069;-72
2023/07/31 00:56:00;;;;;;;6.57;3.63;;;19.10;80.60;;;;;;4980422;28;20276;-71
2023/07/31 00:58:26;;;;;;;5.63;3.45;;;19.00;81.60;;;;;;4996455;28;20046;-71
2023/07/31 01:00:52;;;;;;;10.27;3.90;;;18.90;82.20;;;;;;4982242;28;20038;-72
2023/07/31 01:03:19;;;;;;;6.85;3.38;;;18.90;82.50;;;;;;4983542;28;20041;-71
2023/07/31 01:05:50;;;;;;;6.60;3.83;;;18.80;82.60;;;;;;4984719;28;20038;-71
2023/07/31 01:08:22;;;;;;;9.32;3.80;;;18.80;83.00;;;;;;4988023;28;20774;-71
2023/07/31 01:11:00;;;;;;;6.68;3.78;;;18.70;83.70;;;;;;4996520;28;20034;-72
2023/07/31 01:13:26;;;;;;;7.20;3.60;;;18.60;83.80;;;;;;5006347;28;20042;-72
2023/07/31 01:15:52;;;;;;;9.13;3.80;;;18.60;83.50;;;;;;5006924;28;20563;-72
2023/07/31 01:18:18;;;;;;;6.35;3.60;;;18.60;83.40;;;;;;5008224;28;20124;-71
2023/07/31 01:20:54;;;;;;;6.55;3.53;;;18.70;82.80;;;;;;4991663;28;20040;-72
2023/07/31 01:23:38;;;;;;;5.88;3.70;;;18.70;83.10;;;;;;4987791;28;20038;-72
2023/07/31 01:26:12;;;;;;;6.50;3.53;;;18.70;83.00;;;;;;4987339;28;20038;-72
2023/07/31 01:28:44;;;;;;;10.25;4.47;;;18.60;82.80;;;;;;4987752;28;20528;-71
2023/07/31 01:31:13;;;;;;;5.57;3.60;;;18.70;82.40;;;;;;4987027;28;20066;-73
2023/07/31 01:33:40;;;;;;;5.07;3.08;;;18.50;83.70;;;;;;4986244;28;20112;-72
2023/07/31 01:36:06;;;;;;;5.40;3.83;;;18.50;83.80;;;;;;4986929;28;20074;-72
2023/07/31 01:38:32;;;;;;;6.60;3.90;;;18.50;84.30;;;;;;4986755;28;20043;-72
2023/07/31 01:40:58;;;;;;;9.00;4.00;;;18.50;83.80;;;;;;4981352;28;20037;-72
2023/07/31 01:43:25;;;;;;;5.53;3.60;;;18.60;83.00;;;;;;4987806;28;20057;-71
2023/07/31 01:45:51;;;;;;;4.72;3.30;;;18.50;83.30;;;;;;4987503;28;20381;-72
2023/07/31 01:48:17;;;;;;;5.25;3.15;;;18.60;83.40;;;;;;4986489;28;20413;-72
2023/07/31 01:50:43;;;;;;;7.18;3.63;;;18.30;84.00;;;;;;4988443;28;20043;-72
2023/07/31 01:53:09;;;;;;;6.30;3.40;;;18.40;83.90;;;;;;4984106;28;20035;-71
2023/07/31 01:55:35;;;;;;;5.13;3.50;;;18.50;84.00;;;;;;4986112;28;20038;-72
2023/07/31 01:58:01;;;;;;;9.68;3.47;;;18.50;84.60;;;;;;4986741;28;20073;-72
2023/07/31 02:00:27;;;;;;;7.05;3.78;;;18.50;85.00;;;;;;4981406;28;20183;-72
2023/07/31 02:02:52;;;;;;;5.00;3.60;;;18.30;85.10;;;;;;4987077;28;20042;-73
2023/07/31 02:05:19;;;;;;;5.97;3.78;;;18.40;84.70;;;;;;4987067;28;20038;-72
2023/07/31 02:07:45;;;;;;;5.28;3.63;;;18.40;84.60;;;;;;4988075;28;20057;-73
2023/07/31 02:10:11;;;;;;;7.68;3.15;;;18.50;83.80;;;;;;4986993;28;20053;-73
2023/07/31 02:12:37;;;;;;;6.20;3.60;;;18.50;83.70;;;;;;4987823;28;20420;-72
2023/07/31 02:15:03;;;;;;;5.00;3.15;;;18.50;83.70;;;;;;4985947;28;20069;-72
2023/07/31 02:17:30;;;;;;;3.13;2.75;;;18.50;83.50;;;;;;4995842;28;20108;-72
2023/07/31 02:19:56;;;;;;;5.68;3.55;;;18.60;82.90;;;;;;4984782;28;20509;-71
2023/07/31 02:22:22;;;;;;;5.78;3.35;;;18.50;83.80;;;;;;4981814;28;20045;-72
2023/07/31 02:24:48;;;;;;;4.85;3.40;;;18.60;84.40;;;;;;4986295;28;20042;-72
2023/07/31 02:27:13;;;;;;;7.05;3.28;;;18.70;84.30;;;;;;4986427;28;20924;-73
2023/07/31 02:29:39;;;;;;;4.30;3.30;;;18.80;84.10;;;;;;4983901;28;20069;-72
2023/07/31 02:32:06;;;;;;;7.72;3.63;;;19.00;83.50;;;;;;4970249;28;20042;-72
2023/07/31 02:34:32;;;;;;;4.63;3.53;;;19.20;83.30;;;;;;4986787;28;20038;-71
2023/07/31 02:36:58;;;;;;;4.95;3.15;;;19.30;82.60;;;;;;4985684;28;20053;-71
2023/07/31 02:39:23;;;;;;;4.30;3.00;;;19.40;82.80;;;;;;4984799;28;20077;-71
2023/07/31 02:41:49;;;;;;;6.30;3.78;;;19.60;82.80;;;;;;4984633;28;20048;-70
2023/07/31 02:44:16;;;;;;;7.43;3.60;;;19.70;82.40;;;;;;4982212;28;20125;-71
2023/07/31 02:46:42;;;;;;;6.28;3.22;;;19.80;82.00;;;;;;4985184;28;20040;-71
2023/07/31 02:49:08;;;;;;;6.43;2.92;;;20.00;81.40;;;;;;4986587;28;20037;-71
2023/07/31 02:51:34;;;;;;;6.20;3.28;;;20.10;81.20;;;;;;4985718;28;20045;-71
2023/07/31 02:54:00;;;;;;;6.13;3.47;;;20.30;80.60;;;;;;4995513;28;20085;-72
2023/07/31 02:56:26;;;;;;;7.57;4.22;;;20.40;80.00;;;;;;4983306;28;20030;-70
2023/07/31 02:58:52;;;;;;;5.28;3.38;;;20.40;79.70;;;;;;4984149;28;20081;-70
2023/07/31 03:01:18;;;;;;;4.90;3.42;;;20.50;80.10;;;;;;4984136;28;20405;-71
2023/07/31 03:03:44;;;;;;;8.23;3.38;;;20.30;79.40;;;;;;4984196;28;20042;-71
2023/07/31 03:06:11;;;;;;;6.25;3.60;;;20.30;79.80;;;;;;4984865;28;20425;-69
2023/07/31 03:08:37;;;;;;;5.65;3.38;;;20.30;79.70;;;;;;4985195;28;20034;-70
2023/07/31 03:11:03;;;;;;;4.03;2.90;;;20.10;79.40;;;;;;4982670;28;20125;-70
2023/07/31 03:13:29;;;;;;;5.95;3.40;;;20.10;79.20;;;;;;4969416;28;20045;-70
2023/07/31 03:15:55;;;;;;;3.63;3.13;;;20.00;78.70;;;;;;4983229;28;20046;-70
2023/07/31 03:18:21;;;;;;;5.40;3.03;;;20.00;78.60;;;;;;4986701;28;20037;-71
2023/07/31 03:20:47;;;;;;;3.58;2.90;;;20.00;78.50;;;;;;4984319;28;20056;-71
2023/07/31 03:23:13;;;;;;;3.45;3.03;;;20.00;79.50;;;;;;4983777;28;20627;-72
2023/07/31 03:25:39;;;;;;;4.47;2.75;;;20.00;81.00;;;;;;4983212;28;20033;-71
2023/07/31 03:28:05;;;;;;;5.65;3.15;;;19.90;80.60;;;;;;4984428;28;20092;-71
2023/07/31 03:30:31;;;;;;;6.35;3.28;;;19.70;79.40;;;;;;4985020;28;20038;-71
2023/07/31 03:32:58;;;;;;;4.55;3.28;;;19.70;80.00;;;;;;4981213;28;20588;-72
2023/07/31 03:35:24;;;;;;;5.85;3.47;;;19.80;79.90;;;;;;4986782;28;20065;-72
2023/07/31 03:37:50;;;;;;;5.22;2.83;;;19.70;80.40;;;;;;4984536;28;20165;-71
2023/07/31 03:40:16;;;;;;;4.68;2.95;;;19.80;80.00;;;;;;4995375;28;20501;-72
2023/07/31 03:42:42;;;;;;;3.95;2.60;;;19.80;80.00;;;;;;4984686;28;20037;-71
2023/07/31 03:45:09;;;;;;;6.25;3.20;;;19.90;80.70;;;;;;4985121;28;20030;-73
2023/07/31 03:47:34;;;;;;;4.47;3.00;;;19.70;82.10;;;;;;4985380;28;20544;-70
2023/07/31 03:50:00;;;;;;;6.60;3.03;;;19.70;83.10;;;;;;4982287;28;20038;-72
2023/07/31 03:52:26;;;;;;;5.00;2.72;;;19.80;82.10;;;;;;4981792;28;20085;-71
2023/07/31 03:54:52;;;;;;;7.18;3.00;;;19.90;81.30;;;;;;4981846;28;20125;-72
2023/07/31 03:57:18;;;;;;;4.93;3.10;;;19.90;80.90;;;;;;4983337;28;20035;-72
2023/07/31 03:59:44;;;;;;;6.30;2.92;;;20.00;80.90;;;;;;4981022;28;20041;-73
2023/07/31 04:02:10;;;;;;;4.60;2.60;;;20.30;79.80;;;;;;4982507;28;20039;-71
2023/07/31 04:04:36;;;;;;;3.47;2.60;;;20.50;78.90;;;;;;4980087;28;20049;-72
2023/07/31 04:07:02;;;;;;;4.97;2.50;;;20.70;78.00;;;;;;4982607;28;20040;-72
2023/07/31 04:09:28;;;;;;;3.83;2.67;;;21.00;77.50;;;;;;4983187;28;20113;-72
2023/07/31 04:11:54;;;;;;;3.85;2.70;;;21.10;77.20;;;;;;4982118;28;20181;-70
2023/07/31 04:14:20;;;;;;;4.30;2.55;;;21.30;76.80;;;;;;4984290;28;20038;-71
2023/07/31 04:16:46;;;;;;;3.45;2.47;;;21.50;75.90;;;;;;4983187;28;20042;-71
2023/07/31 04:19:16;;;;;;;5.82;2.70;;;21.80;75.20;;;;;;4982214;28;20038;-71
2023/07/31 04:21:42;;;;;;;7.72;2.83;;;21.90;74.20;;;;;;4983983;28;20128;-71
2023/07/31 04:24:08;;;;;;;2.97;2.40;;;22.10;74.80;;;;;;4983016;28;20038;-71
2023/07/31 04:26:34;;;;;;;2.78;2.55;;;22.30;74.50;;;;;;4982885;28;20042;-70
2023/07/31 04:29:00;;;;;;;3.00;2.70;;;22.60;72.60;;;;;;4983623;28;20034;-72
2023/07/31 04:31:26;;;;;;;3.63;2.67;;;22.70;72.10;;;;;;4985217;28;20528;-72
2023/07/31 04:33:52;;;;;;;4.20;2.47;;;22.80;71.10;;;;;;4982617;28;20034;-72
2023/07/31 04:36:17;;;;;;;2.45;2.13;;;22.90;71.00;;;;;;4984898;28;20270;-72
2023/07/31 04:38:43;;;;;;;4.30;2.67;;;23.10;72.00;;;;;;4983672;28;20038;-72
2023/07/31 04:41:09;;;;;;;3.83;2.50;;;23.30;72.20;;;;;;4983001;28;20068;-72
2023/07/31 04:43:38;;;;;;;4.13;2.08;;;23.40;69.50;;;;;;4983499;28;20050;-72
2023/07/31 04:46:05;;;;;;;2.47;2.03;;;23.60;69.00;;;;;;4982120;28;20452;-72
2023/07/31 04:48:31;;;;;;;3.83;2.40;;;23.80;69.50;;;;;;4984102;28;20092;-72
2023/07/31 04:50:57;;;;;;;3.45;2.05;;;23.90;67.20;;;;;;4984565;28;20124;-72
2023/07/31 04:53:23;;;;;;;2.85;2.08;;;24.10;69.20;;;;;;4984471;28;20070;-71
2023/07/31 04:55:49;;;;;;;2.50;2.20;;;24.20;70.20;;;;;;4984268;28;20739;-72
2023/07/31 04:58:15;;;;;;;3.42;1.90;;;24.40;70.50;;;;;;4984231;28;20034;-72
2023/07/31 05:00:41;;;;;;;2.95;2.00;;;24.50;69.90;;;;;;4983620;28;20034;-72
2023/07/31 05:03:07;;;;;;;2.03;1.83;;;24.70;69.70;;;;;;4984017;28;20038;-71
2023/07/31 05:05:33;;;;;;;5.88;2.08;;;24.80;69.40;;;;;;4982087;28;20039;-70
2023/07/31 05:07:59;;;;;;;2.42;1.88;;;25.00;69.10;;;;;;4982840;28;20030;-70
2023/07/31 05:10:24;;;;;;;3.97;1.80;;;25.20;66.20;;;;;;4983638;28;20104;-70
2023/07/31 05:12:50;;;;;;;3.55;1.83;;;25.40;66.20;;;;;;4982316;28;20087;-69
2023/07/31 05:15:16;;;;;;;4.35;2.17;;;25.60;65.40;;;;;;4979101;28;20038;-69
2023/07/31 05:17:42;;;;;;;2.22;1.67;;;25.80;66.80;;;;;;4982403;28;20051;-70
2023/07/31 05:20:09;;;;;;;3.83;2.17;;;26.10;67.30;;;;;;4983284;28;20129;-70
2023/07/31 05:22:35;;;;;;;3.50;1.90;;;26.20;66.40;;;;;;4983688;28;20398;-70
2023/07/31 05:25:00;;;;;;;2.88;1.73;;;26.40;66.00;;;;;;4982645;28;20088;-71
2023/07/31 05:27:26;;;;;;;2.40;1.73;;;26.50;66.00;;;;;;4984607;28;20039;-71
2023/07/31 05:29:52;;;;;;;5.05;1.90;;;26.70;64.70;;;;;;4982875;28;20042;-71
2023/07/31 05:32:18;;;;;;;2.45;1.65;;;26.90;65.30;;;;;;4982852;28;20030;-71
2023/07/31 05:34:44;;;;;;;1.77;1.67;;;27.00;64.90;;;;;;4982838;28;20037;-71
2023/07/31 05:37:12;;;;;;;4.05;1.52;;;27.20;64.90;;;;;;4983196;28;20043;-71
2023/07/31 05:39:37;;;;;;;2.38;1.92;;;27.30;64.20;;;;;;4983189;28;20053;-71
2023/07/31 05:42:04;;;;;;;2.38;1.70;;;27.30;63.60;;;;;;4983907;28;20031;-71
2023/07/31 05:44:30;;;;;;;1.92;1.55;;;27.30;63.60;;;;;;4982684;28;20506;-71
2023/07/31 05:46:56;;;;;;;2.13;1.50;;;27.40;63.70;;;;;;4983332;28;20041;-71
2023/07/31 05:49:21;;;;;;;5.75;1.83;;;27.40;63.20;;;;;;4985018;28;20038;-72
2023/07/31 05:51:47;;;;;;;2.63;1.63;;;27.40;59.20;;;;;;4986785;28;20030;-71
2023/07/31 05:54:13;;;;;;;2.53;1.90;;;27.50;60.90;;;;;;4987996;28;20073;-71
2023/07/31 05:56:39;;;;;;;3.75;1.80;;;27.50;62.00;;;;;;4987131;28;20528;-71
2023/07/31 05:59:05;;;;;;;3.40;1.83;;;27.60;61.30;;;;;;4986784;28;20045;-71
2023/07/31 06:01:31;;;;;;;2.45;1.77;;;27.70;61.80;;;;;;4986500;28;20049;-71
2023/07/31 06:03:57;;;;;;;1.98;1.48;;;27.80;61.00;;;;;;4986529;28;20038;-70
2023/07/31 06:06:23;;;;;;;4.28;1.85;;;27.90;62.00;;;;;;4986583;28;20441;-70
2023/07/31 06:08:49;;;;;;;2.17;1.67;;;27.90;57.10;;;;;;4985951;28;20971;-70
2023/07/31 06:11:15;;;;;;;1.80;1.58;;;28.00;61.40;;;;;;4987273;28;20136;-71
2023/07/31 06:13:41;;;;;;;1.60;1.48;;;28.10;61.00;;;;;;4987310;28;20453;-72
2023/07/31 06:16:08;;;;;;;3.03;1.70;;;28.20;60.60;;;;;;4986445;28;20096;-72
2023/07/31 06:18:34;;;;;;;2.22;1.50;;;28.20;60.00;;;;;;4987531;28;20500;-71
2023/07/31 06:21:00;;;;;;;3.50;1.48;;;28.30;57.80;;;;;;4986719;28;20041;-72
2023/07/31 06:23:26;;;;;;;6.05;1.60;;;28.30;60.00;;;;;;4986506;28;20113;-72
2023/07/31 06:25:51;;;;;;;4.18;1.48;;;28.50;59.30;;;;;;4984542;28;20542;-71
2023/07/31 06:28:17;;;;;;;2.35;1.75;;;28.60;59.10;;;;;;4986344;28;20038;-71
2023/07/31 06:30:43;;;;;;;4.78;1.80;;;28.60;59.20;;;;;;4985999;28;20034;-71
2023/07/31 06:33:09;;;;;;;4.00;1.70;;;28.70;59.50;;;;;;4985539;28;20390;-71
2023/07/31 06:35:35;;;;;;;4.07;1.55;;;28.70;59.10;;;;;;4986088;28;20065;-70
2023/07/31 06:38:02;;;;;;;10.70;1.90;;;28.70;57.80;;;;;;4985075;28;20046;-75
2023/07/31 06:40:28;;;;;;;1.98;1.42;;;28.70;59.30;;;;;;4982219;28;20038;-74
2023/07/31 06:42:54;;;;;;;3.65;1.77;;;28.70;59.80;;;;;;4985608;28;20061;-76
2023/07/31 06:45:21;;;;;;;1.63;1.42;;;28.70;57.80;;;;;;4985759;28;20026;-78
2023/07/31 06:47:47;;;;;;;4.18;1.70;;;28.60;58.90;;;;;;4986412;28;20042;-77
2023/07/31 06:50:13;;;;;;;3.15;1.20;;;28.60;58.80;;;;;;4985563;28;20035;-78
2023/07/31 06:52:39;;;;;;;2.53;1.42;;;28.60;58.70;;;;;;4984900;28;20413;-79
2023/07/31 06:55:19;;;;;;;3.67;1.48;;;28.60;58.10;;;;;;4985965;28;20039;-76
2023/07/31 06:57:48;;;;;;;3.08;1.55;;;28.50;57.00;;;;;;4985296;28;20034;-78
2023/07/31 07:00:15;;;;;;;3.83;1.45;;;28.60;61.90;;;;;;4984735;28;20461;-76
2023/07/31 07:02:41;;;;;;;2.38;1.23;;;28.60;62.30;;;;;;4985886;28;20456;-78
2023/07/31 07:05:08;;;;;;;3.80;1.35;;;28.50;61.30;;;;;;4985394;28;20064;-76
2023/07/31 07:07:34;;;;;;;1.70;1.20;;;28.50;61.40;;;;;;4985054;28;20061;-75
2023/07/31 07:10:00;;;;;;;3.50;1.20;;;28.50;60.20;;;;;;4986047;28;20058;-77
2023/07/31 07:12:30;;;;;;;6.28;1.55;;;28.50;58.60;;;;;;4984215;28;20034;-75
2023/07/31 07:14:57;;;;;;;3.72;1.30;;;28.50;61.30;;;;;;4986003;28;20042;-78
2023/07/31 07:17:23;;;;;;;6.65;1.50;;;28.50;61.90;;;;;;4989226;28;20066;-78
2023/07/31 07:19:49;;;;;;;3.58;1.55;;;28.50;62.10;;;;;;4988232;28;20396;-78
2023/07/31 07:22:15;;;;;;;2.97;1.88;;;28.50;61.70;;;;;;4990497;28;20038;-77
2023/07/31 07:24:41;;;;;;;1.77;1.30;;;28.40;62.20;;;;;;4982880;28;20464;-75
2023/07/31 07:27:07;;;;;;;2.60;1.20;;;28.40;61.70;;;;;;4989530;28;20586;-78
2023/07/31 07:29:38;;;;;;;3.40;1.40;;;28.40;60.20;;;;;;4988444;28;20038;-75
2023/07/31 07:32:05;;;;;;;3.40;1.20;;;28.40;61.20;;;;;;4990247;28;20041;-76
2023/07/31 07:34:30;;;;;;;1.05;1.05;;;28.40;60.90;;;;;;4990624;28;20034;-76
2023/07/31 07:36:56;;;;;;;4.03;1.50;;;28.40;60.90;;;;;;4979940;28;20030;-75
2023/07/31 07:39:22;;;;;;;2.38;1.38;;;28.30;60.80;;;;;;4979702;28;20097;-76
2023/07/31 07:41:48;;;;;;;5.35;1.48;;;28.30;61.20;;;;;;4989555;28;20067;-77
2023/07/31 07:44:15;;;;;;;2.75;1.10;;;28.30;61.20;;;;;;4989313;28;20041;-75
2023/07/31 07:46:41;;;;;;;4.82;1.20;;;28.20;60.80;;;;;;4991245;28;20576;-77
2023/07/31 07:49:07;;;;;;;5.55;1.38;;;28.20;61.70;;;;;;4988457;28;20429;-75
2023/07/31 07:51:33;;;;;;;3.38;1.20;;;28.20;61.80;;;;;;4989565;28;20034;-75
2023/07/31 07:53:59;;;;;;;3.25;1.58;;;28.20;62.40;;;;;;4982186;28;20035;-74
2023/07/31 07:56:26;;;;;;;3.42;1.02;;;28.10;62.40;;;;;;4980213;28;20057;-76
2023/07/31 07:58:53;;;;;;;5.40;1.05;;;28.10;62.20;;;;;;4982239;28;20038;-73
2023/07/31 08:01:19;;;;;;;2.63;1.05;;;28.10;61.90;;;;;;4980464;28;20104;-75
2023/07/31 08:03:46;;;;;;;1.05;1.00;;;28.00;63.20;;;;;;4980384;28;20039;-73
2023/07/31 08:06:12;;;;;;;1.73;0.98;;;27.90;58.00;;;;;;4980412;28;20030;-74
2023/07/31 08:08:39;;;;;;;1.27;1.17;;;27.90;61.90;;;;;;4980828;28;20038;-74
2023/07/31 08:11:05;;;;;;;2.17;1.13;;;27.90;61.10;;;;;;4982009;28;20456;-75
2023/07/31 08:13:31;;;;;;;1.60;1.10;;;27.80;63.00;;;;;;4980443;28;20050;-74
2023/07/31 08:15:57;;;;;;;1.20;1.08;;;27.80;60.60;;;;;;4980649;28;20035;-76
2023/07/31 08:18:23;;;;;;;2.53;1.35;;;27.80;62.90;;;;;;4980175;28;20104;-76
2023/07/31 08:20:49;;;;;;;1.98;0.95;;;27.80;62.20;;;;;;4981383;28;20034;-76
2023/07/31 08:23:15;;;;;;;3.45;1.33;;;27.80;62.30;;;;;;4980733;28;20030;-76
2023/07/31 08:25:41;;;;;;;3.38;1.20;;;27.70;63.10;;;;;;4979456;28;20058;-76
2023/07/31 08:28:07;;;;;;;3.47;0.90;;;27.80;61.90;;;;;;4980552;28;20035;-74
2023/07/31 08:30:34;;;;;;;2.40;1.10;;;27.70;61.80;;;;;;4979824;28;20077;-73
2023/07/31 08:33:00;;;;;;;4.13;1.10;;;27.70;61.20;;;;;;4979587;28;20038;-76
2023/07/31 08:35:29;;;;;;;3.55;1.02;;;27.70;62.00;;;;;;4980110;28;20034;-78
2023/07/31 08:37:55;;;;;;;3.58;1.40;;;27.70;61.50;;;;;;4978332;28;20045;-78
2023/07/31 08:40:21;;;;;;;3.13;0.93;;;27.70;61.60;;;;;;4980811;28;20035;-77
2023/07/31 08:42:49;;;;;;;2.58;1.13;;;27.70;62.10;;;;;;4981148;28;20022;-81
2023/07/31 08:45:17;;;;;;;2.58;1.00;;;27.60;63.20;;;;;;4981025;28;20061;-78
2023/07/31 08:47:49;;;;;;;1.70;1.20;;;27.60;62.90;;;;;;4980372;28;20046;-77
2023/07/31 08:50:16;;;;;;;1.15;0.82;;;27.50;64.60;;;;;;4980746;28;20088;-77
2023/07/31 08:52:43;;;;;;;1.40;1.10;;;27.50;64.20;;;;;;4980088;28;20030;-78
2023/07/31 08:55:09;;;;;;;2.42;1.10;;;27.50;64.70;;;;;;4980080;28;20137;-78
2023/07/31 08:57:37;;;;;;;1.75;1.23;;;27.40;56.80;;;;;;4981969;28;20628;-77
2023/07/31 09:00:05;;;;;;;1.23;1.13;;;27.40;63.00;;;;;;4981067;28;20050;-77
2023/07/31 09:03:08;;;;;;;1.77;1.10;;;27.40;61.80;;;;;;4979974;28;20082;-77
2023/07/31 09:05:36;;;;;;;3.15;1.40;;;27.40;64.10;;;;;;4976891;28;20469;-75
2023/07/31 09:08:05;;;;;;;1.92;1.15;;;27.30;53.40;;;;;;4977900;28;20185;-75
2023/07/31 09:10:31;;;;;;;2.20;1.20;;;27.40;60.10;;;;;;4979145;28;20041;-74
2023/07/31 09:12:58;;;;;;;1.95;1.20;;;27.30;63.40;;;;;;4980203;28;20034;-75
2023/07/31 09:15:24;;;;;;;2.50;1.23;;;27.30;62.00;;;;;;4992726;28;20061;-75
2023/07/31 09:18:02;;;;;;;1.75;1.38;;;27.20;64.00;;;;;;4981076;28;20042;-74
2023/07/31 09:20:28;;;;;;;1.55;1.20;;;27.20;62.50;;;;;;4979967;28;20034;-75
2023/07/31 09:22:55;;;;;;;1.23;1.13;;;27.20;54.00;;;;;;4979949;28;20114;-73
2023/07/31 09:25:22;;;;;;;2.95;1.20;;;27.10;54.70;;;;;;4982507;28;20462;-75
2023/07/31 09:27:53;;;;;;;1.60;1.50;;;27.10;55.90;;;;;;4982423;28;20068;-73
2023/07/31 09:30:20;;;;;;;1.35;1.25;;;27.10;58.60;;;;;;4984579;28;20027;-75
2023/07/31 09:32:47;;;;;;;2.38;1.42;;;27.10;56.70;;;;;;4984277;28;20419;-74
2023/07/31 09:35:33;;;;;;;2.50;1.80;;;27.10;59.30;;;;;;4984885;28;20378;-75
2023/07/31 09:38:05;;;;;;;2.60;1.30;;;27.10;55.70;;;;;;4984518;28;20053;-73
2023/07/31 09:40:33;;;;;;;3.58;1.55;;;27.10;61.30;;;;;;4984962;28;20039;-74
2023/07/31 09:43:04;;;;;;;1.73;1.10;;;27.10;64.50;;;;;;4986097;28;20420;-74
2023/07/31 09:45:33;;;;;;;2.88;1.30;;;27.10;57.10;;;;;;4986795;28;20077;-75
2023/07/31 09:47:59;;;;;;;2.65;1.60;;;27.00;55.40;;;;;;4986934;28;20066;-75
2023/07/31 09:50:25;;;;;;;1.73;1.20;;;26.90;59.20;;;;;;4987994;28;20571;-75
2023/07/31 09:52:52;;;;;;;2.67;2.17;;;26.90;55.50;;;;;;4985846;28;20710;-74
2023/07/31 09:55:19;;;;;;;6.57;5.75;;;27.00;54.80;;;;;;4982322;28;20070;-75
2023/07/31 09:57:47;;;;;;;3.53;2.80;;;26.90;56.90;;;;;;4986774;28;20036;-75
2023/07/31 10:00:15;;;;;;;2.35;2.10;;;27.00;55.00;;;;;;4985824;28;20041;-74
2023/07/31 10:02:44;;;;;;;2.90;2.00;;;26.90;60.10;;;;;;4985147;28;20038;-75
2023/07/31 10:05:12;;;;;;;2.10;1.98;;;26.90;59.20;;;;;;4987306;28;20421;-74
2023/07/31 10:07:41;;;;;;;2.08;1.65;;;27.00;60.90;;;;;;4986831;28;20057;-75
2023/07/31 10:10:09;;;;;;;2.17;1.83;;;27.00;63.90;;;;;;4986826;28;20047;-75
2023/07/31 10:12:36;;;;;;;2.42;1.80;;;26.90;56.70;;;;;;4983841;28;20116;-75
2023/07/31 10:15:02;;;;;;;2.22;1.52;;;26.90;56.40;;;;;;4986139;28;20568;-74
2023/07/31 10:17:30;;;;;;;2.38;1.75;;;26.90;54.40;;;;;;4986791;28;20050;-73
2023/07/31 10:20:03;;;;;;;3.63;3.33;;;26.90;59.00;;;;;;4976058;28;20046;-75
2023/07/31 10:22:30;;;;;;;18.27;16.33;;;26.80;55.00;;;;;;4986253;28;20521;-75
2023/07/31 10:24:58;;;;;;;6.55;5.53;;;26.80;55.20;;;;;;4985025;28;20060;-75
2023/07/31 10:27:25;;;;;;;4.63;3.10;;;26.70;57.10;;;;;;4997650;28;20493;-75
2023/07/31 10:29:54;;;;;;;3.15;1.98;;;26.70;57.10;;;;;;4985733;28;20038;-74
2023/07/31 10:32:21;;;;;;;2.80;1.98;;;26.70;55.20;;;;;;4986518;28;20049;-74
2023/07/31 10:34:49;;;;;;;2.60;2.00;;;26.70;56.60;;;;;;4984296;28;20425;-75
2023/07/31 10:37:23;;;;;;;3.05;2.03;;;26.80;59.00;;;;;;4984858;28;20041;-75
2023/07/31 10:40:05;;;;;;;3.53;2.20;;;26.80;56.60;;;;;;4983565;28;20041;-75
2023/07/31 10:42:55;;;;;;;3.42;1.80;;;26.70;54.10;;;;;;4986948;28;20113;-76
2023/07/31 10:45:38;;;;;;;1.92;1.70;;;26.80;53.80;;;;;;4986337;28;20533;-75
2023/07/31 10:48:17;;;;;;;2.45;2.20;;;26.60;51.80;;;;;;4986581;28;20080;-76
2023/07/31 10:50:56;;;;;;;2.60;1.95;;;26.70;54.00;;;;;;4985492;28;20038;-75
2023/07/31 10:53:33;;;;;;;2.40;1.90;;;26.70;54.20;;;;;;4985953;28;20137;-74
2023/07/31 10:56:18;;;;;;;2.65;2.10;;;26.70;58.40;;;;;;4991474;28;20035;-74
2023/07/31 10:58:46;;;;;;;2.10;1.90;;;26.60;54.90;;;;;;4985267;28;20038;-74
2023/07/31 11:01:11;;;;;;;3.35;1.40;;;26.60;55.50;;;;;;4984339;28;20654;-73
2023/07/31 11:03:46;;;;;;;3.72;1.90;;;26.50;56.00;;;;;;4980089;28;20027;-73
2023/07/31 11:06:13;;;;;;;2.03;1.83;;;26.50;56.20;;;;;;4985814;28;20038;-73
2023/07/31 11:08:46;;;;;;;2.10;1.90;;;26.50;55.80;;;;;;4985827;28;20042;-73
2023/07/31 11:11:17;;;;;;;1.98;1.77;;;26.50;55.10;;;;;;4984191;28;20374;-73
2023/07/31 11:13:50;;;;;;;2.38;1.73;;;26.40;54.70;;;;;;4983636;28;20499;-73
2023/07/31 11:16:17;;;;;;;1.60;1.50;;;26.40;55.90;;;;;;4985914;28;20054;-75
2023/07/31 11:18:45;;;;;;;2.13;1.92;;;26.40;56.20;;;;;;4986918;28;20533;-75
2023/07/31 11:21:15;;;;;;;2.33;1.88;;;26.40;56.10;;;;;;4984938;28;20088;-73
2023/07/31 11:23:47;;;;;;;2.35;1.77;;;26.40;56.00;;;;;;4984149;28;20599;-74
2023/07/31 11:26:14;;;;;;;2.05;1.83;;;26.40;55.70;;;;;;4981346;28;20567;-75
2023/07/31 11:28:42;;;;;;;1.98;1.67;;;26.40;56.50;;;;;;4985214;28;20034;-75
2023/07/31 11:31:11;;;;;;;1.60;1.50;;;26.50;56.50;;;;;;4983979;28;20038;-75
2023/07/31 11:33:37;;;;;;;1.42;1.33;;;26.40;55.40;;;;;;4985812;28;20551;-73
2023/07/31 11:36:04;;;;;;;1.80;1.70;;;26.40;53.20;;;;;;4985364;28;20039;-75
2023/07/31 11:38:34;;;;;;;2.55;1.90;;;26.40;55.00;;;;;;4983947;28;20034;-75
2023/07/31 11:41:02;;;;;;;1.95;1.85;;;26.40;54.40;;;;;;4983987;28;20061;-75
2023/07/31 11:43:29;;;;;;;1.75;1.65;;;26.40;54.30;;;;;;4985203;28;20125;-75
2023/07/31 11:45:56;;;;;;;2.22;1.60;;;26.30;55.00;;;;;;4985035;28;20030;-76
2023/07/31 11:48:23;;;;;;;1.80;1.70;;;26.40;55.40;;;;;;4984303;28;20109;-76
2023/07/31 11:50:51;;;;;;;2.47;1.60;;;26.30;54.70;;;;;;4995211;28;20121;-75
2023/07/31 11:53:25;;;;;;;3.60;1.98;;;26.40;55.80;;;;;;4982141;28;20034;-75
2023/07/31 11:55:51;;;;;;;4.22;1.70;;;26.40;55.70;;;;;;4985241;28;20157;-75
2023/07/31 11:58:18;;;;;;;2.20;1.80;;;26.40;55.60;;;;;;4984715;28;20042;-75
2023/07/31 12:00:46;;;;;;;3.35;1.80;;;26.40;55.50;;;;;;4984245;28;20030;-74
2023/07/31 12:03:12;;;;;;;4.10;2.00;;;26.30;54.50;;;;;;4984905;28;20156;-75
2023/07/31 12:05:38;;;;;;;2.33;1.75;;;26.30;56.60;;;;;;4984076;28;20034;-75
2023/07/31 12:08:10;;;;;;;2.85;1.90;;;26.40;59.40;;;;;;4984359;28;20049;-75
2023/07/31 12:10:36;;;;;;;1.83;1.65;;;26.40;56.70;;;;;;4984103;28;20034;-74
2023/07/31 12:13:10;;;;;;;2.53;1.90;;;26.40;57.00;;;;;;4984376;28;20080;-75
2023/07/31 12:15:42;;;;;;;1.80;1.70;;;26.50;59.60;;;;;;4983789;28;20047;-75
2023/07/31 12:18:11;;;;;;;1.83;1.73;;;26.40;57.70;;;;;;4984104;28;20517;-75
2023/07/31 12:20:44;;;;;;;3.30;1.80;;;26.40;55.90;;;;;;4979289;28;20035;-75
2023/07/31 12:23:29;;;;;;;1.90;1.80;;;26.40;56.50;;;;;;4983046;28;20041;-75
2023/07/31 12:26:12;;;;;;;1.90;1.80;;;26.40;55.70;;;;;;4983379;28;20034;-75
2023/07/31 12:28:49;;;;;;;1.88;1.70;;;26.40;55.10;;;;;;4985128;28;20180;-75
2023/07/31 12:31:17;;;;;;;1.73;1.63;;;26.40;56.20;;;;;;4983547;28;20418;-75
2023/07/31 12:33:43;;;;;;;1.75;1.58;;;26.40;56.60;;;;;;4984108;28;20116;-75
2023/07/31 12:36:12;;;;;;;4.18;2.00;;;26.40;56.00;;;;;;4983635;28;20088;-75
2023/07/31 12:38:38;;;;;;;3.42;2.00;;;26.40;56.50;;;;;;4984993;28;20137;-75
2023/07/31 12:41:06;;;;;;;2.53;1.83;;;26.40;55.90;;;;;;4985067;28;20104;-74
2023/07/31 12:43:36;;;;;;;1.92;1.63;;;26.40;57.20;;;;;;4982938;28;20054;-73
2023/07/31 12:46:03;;;;;;;2.10;1.80;;;26.40;57.80;;;;;;4983859;28;20049;-74
2023/07/31 12:48:29;;;;;;;1.90;1.80;;;26.40;57.70;;;;;;4984412;28;20037;-75